Time;durP1;ratioP1;P1;durP2;ratioP2;P2;SDS_P1;SDS_P2;PMS_P1;PMS_P2;Temp;Humidity;BMP_temperature;BMP_pressure;BME280_temperature;BME280_humidity;BME280_pressure;Samples;Min_cycle;Max_cycle;Signal;HPM_P1;HPM_P2
2021/05/16 00:00:50;;;;;;;0.20;0.20;;;9.90;99.90;;;;;;5025907;28;20175;-77
2021/05/16 00:03:15;;;;;;;0.20;0.20;;;10.00;99.90;;;;;;5009587;28;20289;-79
2021/05/16 00:05:41;;;;;;;0.10;0.10;;;10.00;99.90;;;;;;5009882;28;20252;-79
2021/05/16 00:08:07;;;;;;;0.10;0.10;;;10.00;99.90;;;;;;5010619;28;20189;-80
2021/05/16 00:10:32;;;;;;;0.00;0.00;;;10.00;99.90;;;;;;5011343;28;20208;-80
2021/05/16 00:12:59;;;;;;;0.10;0.10;;;10.10;99.90;;;;;;5025131;28;20182;-79
2021/05/16 00:15:27;;;;;;;0.60;0.33;;;10.10;99.90;;;;;;5010199;28;20581;-79
2021/05/16 00:17:53;;;;;;;0.07;0.07;;;10.10;99.90;;;;;;5012164;28;20198;-78
2021/05/16 00:20:23;;;;;;;0.43;0.23;;;10.20;99.90;;;;;;5011484;28;20177;-79
2021/05/16 00:22:49;;;;;;;0.20;0.20;;;10.30;99.90;;;;;;5024050;28;20185;-77
2021/05/16 00:25:16;;;;;;;0.20;0.20;;;10.20;99.90;;;;;;5010052;28;20235;-79
2021/05/16 00:27:43;;;;;;;0.20;0.13;;;10.10;99.90;;;;;;5026445;28;20202;-79
2021/05/16 00:30:11;;;;;;;0.30;0.30;;;10.10;99.90;;;;;;5026623;28;20193;-78
2021/05/16 00:32:37;;;;;;;0.20;0.20;;;10.10;99.90;;;;;;5024751;28;20198;-80
2021/05/16 00:35:05;;;;;;;0.03;0.03;;;10.00;99.90;;;;;;5005523;28;20209;-78
2021/05/16 00:37:31;;;;;;;0.20;0.20;;;9.90;99.90;;;;;;5009503;28;20670;-79
2021/05/16 00:39:57;;;;;;;0.20;0.20;;;9.90;99.90;;;;;;5019917;28;20197;-77
2021/05/16 00:42:24;;;;;;;0.13;0.13;;;9.90;99.90;;;;;;5030549;28;20190;-79
2021/05/16 00:45:05;;;;;;;0.17;0.17;;;9.90;99.90;;;;;;5009584;28;20563;-79
2021/05/16 00:47:31;;;;;;;0.23;0.23;;;9.80;99.90;;;;;;5011143;28;20263;-79
2021/05/16 00:49:57;;;;;;;0.10;0.10;;;9.80;99.90;;;;;;5016447;28;20284;-79
2021/05/16 00:52:26;;;;;;;0.30;0.30;;;9.90;99.90;;;;;;5009941;28;20190;-79
2021/05/16 00:54:54;;;;;;;0.10;0.10;;;10.00;99.90;;;;;;5011375;28;20687;-79
2021/05/16 00:57:19;;;;;;;0.30;0.20;;;10.20;99.90;;;;;;5025325;28;20210;-78
2021/05/16 00:59:45;;;;;;;0.40;0.40;;;10.20;99.90;;;;;;5012964;28;20539;-77
2021/05/16 01:02:11;;;;;;;0.20;0.20;;;10.30;99.90;;;;;;5025749;28;20281;-79
2021/05/16 01:04:39;;;;;;;0.23;0.23;;;10.30;99.90;;;;;;5009497;28;20281;-79
2021/05/16 01:07:04;;;;;;;0.10;0.10;;;10.30;99.90;;;;;;5013170;28;20567;-79
2021/05/16 01:09:30;;;;;;;0.30;0.30;;;10.30;99.90;;;;;;5027263;28;20197;-79
2021/05/16 01:11:58;;;;;;;0.20;0.20;;;10.30;99.90;;;;;;5015140;28;20202;-79
2021/05/16 01:14:35;;;;;;;0.10;0.10;;;10.40;99.90;;;;;;5028670;28;20231;-79
2021/05/16 01:17:02;;;;;;;0.53;0.30;;;10.40;99.90;;;;;;5019205;28;20211;-79
2021/05/16 01:19:31;;;;;;;0.10;0.10;;;10.60;99.90;;;;;;5026126;28;20264;-80
2021/05/16 01:21:57;;;;;;;0.10;0.10;;;10.70;99.90;;;;;;5015919;28;20209;-79
2021/05/16 01:24:24;;;;;;;0.27;0.10;;;10.70;99.90;;;;;;5012632;28;20187;-79
2021/05/16 01:26:51;;;;;;;0.20;0.20;;;10.80;99.90;;;;;;5014542;28;20211;-79
2021/05/16 01:29:18;;;;;;;0.50;0.50;;;10.90;99.90;;;;;;5029558;28;20190;-78
2021/05/16 01:31:44;;;;;;;0.33;0.33;;;11.00;99.90;;;;;;5027452;28;20219;-79
2021/05/16 01:34:10;;;;;;;0.20;0.20;;;10.90;99.90;;;;;;5011954;28;20194;-79
2021/05/16 01:36:37;;;;;;;0.30;0.30;;;10.90;99.90;;;;;;5012272;28;20297;-79
2021/05/16 01:39:06;;;;;;;0.10;0.10;;;10.90;99.90;;;;;;5016233;28;20205;-79
2021/05/16 01:41:32;;;;;;;0.00;0.00;;;11.00;99.90;;;;;;5012024;28;20185;-79
2021/05/16 01:43:58;;;;;;;0.10;0.10;;;11.00;99.90;;;;;;5017529;28;20650;-79
2021/05/16 01:46:24;;;;;;;0.17;0.17;;;11.10;99.90;;;;;;5014820;28;20214;-79
2021/05/16 01:48:50;;;;;;;0.70;0.47;;;11.20;99.90;;;;;;5029139;28;20284;-80
2021/05/16 01:51:15;;;;;;;0.50;0.50;;;11.10;99.90;;;;;;5007052;28;20565;-79
2021/05/16 01:53:41;;;;;;;0.67;0.20;;;11.10;99.90;;;;;;5019065;28;20179;-79
2021/05/16 01:56:08;;;;;;;0.63;0.27;;;11.20;99.90;;;;;;5028973;28;20301;-79
2021/05/16 01:58:35;;;;;;;0.33;0.33;;;11.20;99.90;;;;;;5012315;28;20191;-79
2021/05/16 02:01:04;;;;;;;0.90;0.20;;;11.20;99.90;;;;;;5012021;28;20269;-79
2021/05/16 02:03:31;;;;;;;0.23;0.23;;;11.20;99.90;;;;;;5012657;28;20543;-79
2021/05/16 02:05:57;;;;;;;0.20;0.20;;;11.20;99.90;;;;;;5019913;28;20758;-79
2021/05/16 02:08:23;;;;;;;0.10;0.10;;;11.30;99.90;;;;;;5013907;28;20225;-80
2021/05/16 02:10:49;;;;;;;0.20;0.20;;;11.30;99.90;;;;;;5011801;28;20270;-79
2021/05/16 02:13:14;;;;;;;0.13;0.13;;;11.30;99.90;;;;;;5010823;28;20274;-79
2021/05/16 02:15:40;;;;;;;0.43;0.43;;;11.20;99.90;;;;;;5013768;28;20183;-80
2021/05/16 02:18:08;;;;;;;0.10;0.10;;;11.30;99.90;;;;;;5028465;28;20675;-79
2021/05/16 02:20:34;;;;;;;0.40;0.13;;;11.30;99.90;;;;;;5010810;28;20194;-78
2021/05/16 02:23:00;;;;;;;0.20;0.20;;;11.30;99.90;;;;;;5010953;28;20942;-83
2021/05/16 02:25:27;;;;;;;0.20;0.10;;;11.20;99.90;;;;;;5012127;28;20218;-81
2021/05/16 02:27:52;;;;;;;0.53;0.20;;;11.30;99.90;;;;;;5013714;28;20191;-80
2021/05/16 02:30:18;;;;;;;0.17;0.17;;;11.40;99.90;;;;;;5025340;28;20646;-80
2021/05/16 02:32:45;;;;;;;0.20;0.20;;;11.30;99.90;;;;;;5023068;28;20253;-80
2021/05/16 02:35:12;;;;;;;0.20;0.20;;;11.30;99.90;;;;;;5027039;28;20198;-80
2021/05/16 02:37:38;;;;;;;0.17;0.17;;;11.40;99.90;;;;;;5016099;28;20208;-80
2021/05/16 02:40:05;;;;;;;0.67;0.23;;;11.40;99.90;;;;;;5020205;28;20201;-80
2021/05/16 02:42:31;;;;;;;0.60;0.60;;;11.30;99.90;;;;;;5015362;28;20190;-83
2021/05/16 02:44:56;;;;;;;0.10;0.10;;;11.40;99.90;;;;;;5024017;28;20198;-79
2021/05/16 02:47:22;;;;;;;1.90;0.20;;;11.40;99.90;;;;;;5020200;28;20217;-80
2021/05/16 02:49:48;;;;;;;0.10;0.10;;;11.40;99.90;;;;;;5017750;28;20861;-80
2021/05/16 02:52:14;;;;;;;0.67;0.20;;;11.50;99.90;;;;;;5014856;28;20197;-80
2021/05/16 02:54:40;;;;;;;0.10;0.10;;;11.50;99.90;;;;;;5012181;28;20648;-80
2021/05/16 02:57:06;;;;;;;0.37;0.17;;;11.50;99.90;;;;;;5020657;28;20217;-80
2021/05/16 02:59:31;;;;;;;0.20;0.20;;;11.50;99.90;;;;;;5021268;28;20691;-80
2021/05/16 03:01:57;;;;;;;0.20;0.20;;;11.40;99.90;;;;;;5026562;28;20183;-81
2021/05/16 03:04:22;;;;;;;0.10;0.10;;;11.50;99.90;;;;;;5000286;28;20210;-80
2021/05/16 03:06:48;;;;;;;0.40;0.40;;;11.50;99.90;;;;;;5005748;28;20297;-81
2021/05/16 03:09:13;;;;;;;0.60;0.30;;;11.50;99.90;;;;;;5000432;28;20187;-81
2021/05/16 03:11:40;;;;;;;0.83;0.83;;;11.40;99.90;;;;;;5018113;28;20210;-80
2021/05/16 03:14:07;;;;;;;0.50;0.50;;;11.10;99.90;;;;;;5026114;28;20187;-80
2021/05/16 03:16:33;;;;;;;0.07;0.07;;;11.20;99.90;;;;;;5010698;28;20285;-80
2021/05/16 03:18:58;;;;;;;0.20;0.20;;;11.00;99.90;;;;;;5019227;28;20199;-81
2021/05/16 03:21:24;;;;;;;0.30;0.20;;;10.80;99.90;;;;;;5015199;28;20607;-81
2021/05/16 03:23:50;;;;;;;0.30;0.20;;;10.70;99.90;;;;;;5010413;28;20179;-81
2021/05/16 03:26:16;;;;;;;0.20;0.20;;;11.00;99.90;;;;;;5012212;28;20293;-78
2021/05/16 03:28:42;;;;;;;0.23;0.10;;;11.10;99.90;;;;;;5027187;28;20186;-81
2021/05/16 03:31:07;;;;;;;0.43;0.10;;;11.30;99.90;;;;;;5009687;28;20190;-80
2021/05/16 03:33:33;;;;;;;0.13;0.07;;;11.30;99.90;;;;;;5009978;28;20194;-81
2021/05/16 03:35:58;;;;;;;0.20;0.20;;;11.40;99.90;;;;;;5025344;28;20222;-81
2021/05/16 03:38:24;;;;;;;0.10;0.10;;;11.50;99.90;;;;;;5011041;28;20203;-80
2021/05/16 03:40:51;;;;;;;0.10;0.10;;;11.50;99.90;;;;;;5006522;28;20233;-79
2021/05/16 03:43:18;;;;;;;0.27;0.10;;;11.40;99.90;;;;;;5006597;28;20216;-81
2021/05/16 03:45:44;;;;;;;0.20;0.20;;;11.30;99.90;;;;;;5010466;28;20214;-80
2021/05/16 03:48:09;;;;;;;0.10;0.10;;;11.20;99.90;;;;;;5008392;28;20592;-79
2021/05/16 03:50:35;;;;;;;0.20;0.20;;;11.20;99.90;;;;;;5019295;28;20549;-81
2021/05/16 03:53:01;;;;;;;0.30;0.30;;;11.20;99.90;;;;;;4996556;28;20246;-81
2021/05/16 03:55:26;;;;;;;0.17;0.17;;;10.90;99.90;;;;;;5009475;28;20340;-80
2021/05/16 03:57:52;;;;;;;0.10;0.10;;;11.00;99.90;;;;;;5002591;28;20292;-80
2021/05/16 04:00:19;;;;;;;0.63;0.40;;;11.10;99.90;;;;;;5009353;28;20187;-81
2021/05/16 04:02:46;;;;;;;0.10;0.10;;;10.90;99.90;;;;;;5007425;28;20187;-81
2021/05/16 04:05:13;;;;;;;0.20;0.20;;;10.90;99.90;;;;;;5016199;28;20217;-81
2021/05/16 04:07:39;;;;;;;0.10;0.10;;;11.10;99.90;;;;;;4996764;28;20211;-79
2021/05/16 04:10:05;;;;;;;0.10;0.10;;;11.20;99.90;;;;;;5010075;28;20286;-79
2021/05/16 04:12:31;;;;;;;0.07;0.07;;;11.30;99.90;;;;;;5019259;28;20237;-81
2021/05/16 04:14:57;;;;;;;0.10;0.10;;;11.30;99.90;;;;;;5009340;28;20183;-79
2021/05/16 04:17:22;;;;;;;0.10;0.10;;;11.30;99.90;;;;;;5008181;28;20297;-80
2021/05/16 04:19:48;;;;;;;0.40;0.40;;;11.40;99.90;;;;;;5015706;28;20228;-81
2021/05/16 04:22:14;;;;;;;0.10;0.10;;;11.50;99.90;;;;;;5017032;28;20191;-80
2021/05/16 04:24:39;;;;;;;0.20;0.20;;;11.60;99.90;;;;;;5011551;28;20233;-81
2021/05/16 04:27:05;;;;;;;0.10;0.10;;;11.70;99.90;;;;;;5010539;28;20214;-80
2021/05/16 04:29:31;;;;;;;0.20;0.20;;;11.70;99.90;;;;;;5011180;28;20206;-79
2021/05/16 04:31:57;;;;;;;0.20;0.20;;;11.80;99.90;;;;;;5005130;28;20203;-81
2021/05/16 04:34:22;;;;;;;0.20;0.10;;;11.70;99.90;;;;;;5004486;28;20190;-81
2021/05/16 04:36:48;;;;;;;0.10;0.10;;;11.80;99.90;;;;;;5005120;28;20239;-81
2021/05/16 04:39:13;;;;;;;0.07;0.07;;;11.70;99.90;;;;;;5009392;28;20317;-80
2021/05/16 04:41:39;;;;;;;0.20;0.20;;;11.70;99.90;;;;;;5009857;28;20214;-80
2021/05/16 04:44:05;;;;;;;0.10;0.10;;;11.50;99.90;;;;;;5004420;28;20202;-80
2021/05/16 04:46:31;;;;;;;0.23;0.23;;;11.70;99.90;;;;;;5006659;28;20225;-81
2021/05/16 04:48:56;;;;;;;0.10;0.10;;;11.50;99.90;;;;;;5021626;28;20217;-80
2021/05/16 04:51:22;;;;;;;0.00;0.00;;;11.60;99.90;;;;;;5013550;28;20225;-80
2021/05/16 04:53:47;;;;;;;0.10;0.10;;;11.80;99.90;;;;;;5016850;28;20183;-80
2021/05/16 04:56:13;;;;;;;0.10;0.10;;;11.60;99.90;;;;;;5009597;28;20691;-81
2021/05/16 04:58:38;;;;;;;0.10;0.10;;;11.20;99.90;;;;;;5014252;28;20566;-81
2021/05/16 05:01:05;;;;;;;0.13;0.13;;;11.10;99.90;;;;;;5028393;28;20215;-80
2021/05/16 05:03:31;;;;;;;0.10;0.10;;;11.10;99.90;;;;;;5013665;28;20215;-80
2021/05/16 05:05:57;;;;;;;0.13;0.13;;;11.20;99.90;;;;;;5014411;28;20226;-81
2021/05/16 05:08:25;;;;;;;0.10;0.10;;;11.40;99.90;;;;;;5015943;28;20180;-81
2021/05/16 05:10:51;;;;;;;0.10;0.10;;;11.40;99.90;;;;;;5019370;28;20175;-80
2021/05/16 05:13:16;;;;;;;0.10;0.10;;;11.50;99.90;;;;;;5013065;28;20183;-83
2021/05/16 05:15:42;;;;;;;0.10;0.10;;;11.60;99.90;;;;;;5013588;28;20285;-84
2021/05/16 05:18:08;;;;;;;0.10;0.10;;;11.70;99.90;;;;;;5028518;28;20197;-83
2021/05/16 05:20:34;;;;;;;0.10;0.10;;;11.80;99.90;;;;;;5011778;28;20668;-83
2021/05/16 05:23:00;;;;;;;0.10;0.10;;;12.00;99.90;;;;;;5010780;28;20786;-84
2021/05/16 05:25:29;;;;;;;0.30;0.30;;;12.00;99.90;;;;;;5012146;28;20214;-79
2021/05/16 05:27:58;;;;;;;0.10;0.10;;;12.10;99.90;;;;;;5013188;28;20330;-79
2021/05/16 05:30:24;;;;;;;0.10;0.10;;;12.10;99.90;;;;;;5029215;28;20631;-80
2021/05/16 05:32:50;;;;;;;0.10;0.10;;;12.20;99.90;;;;;;5012361;28;21943;-80
2021/05/16 05:35:16;;;;;;;0.27;0.27;;;11.80;99.90;;;;;;5012878;28;20671;-80
2021/05/16 05:37:43;;;;;;;0.20;0.20;;;11.40;99.90;;;;;;5029587;28;20217;-80
2021/05/16 05:40:10;;;;;;;0.10;0.10;;;11.40;99.90;;;;;;5012410;28;20655;-80
2021/05/16 05:42:36;;;;;;;0.10;0.10;;;11.50;99.90;;;;;;5012433;28;20183;-80
2021/05/16 05:45:04;;;;;;;0.10;0.10;;;11.90;99.90;;;;;;5009005;28;20191;-79
2021/05/16 05:47:29;;;;;;;0.10;0.10;;;12.20;99.90;;;;;;5011697;28;20729;-81
2021/05/16 05:49:55;;;;;;;0.10;0.10;;;12.20;99.90;;;;;;5006206;28;20291;-80
2021/05/16 05:52:21;;;;;;;0.20;0.20;;;12.20;99.90;;;;;;5016262;28;20195;-80
2021/05/16 05:54:46;;;;;;;0.10;0.10;;;12.40;99.90;;;;;;5013893;28;20186;-80
2021/05/16 05:57:12;;;;;;;0.10;0.10;;;12.60;99.90;;;;;;5012269;28;20206;-80
2021/05/16 05:59:37;;;;;;;0.20;0.20;;;12.50;99.90;;;;;;5013204;28;20182;-81
2021/05/16 06:02:03;;;;;;;0.10;0.10;;;12.40;99.90;;;;;;5011681;28;20187;-80
2021/05/16 06:04:30;;;;;;;0.87;0.87;;;12.60;99.90;;;;;;5012575;28;20799;-80
2021/05/16 06:06:56;;;;;;;0.23;0.17;;;12.40;99.90;;;;;;5009585;28;20223;-79
2021/05/16 06:09:21;;;;;;;0.10;0.10;;;12.30;99.90;;;;;;5005890;28;20674;-80
2021/05/16 06:11:47;;;;;;;0.80;0.80;;;12.60;99.90;;;;;;5015168;28;20183;-81
2021/05/16 06:14:13;;;;;;;0.30;0.30;;;12.30;99.90;;;;;;5026235;28;20537;-80
2021/05/16 06:16:38;;;;;;;0.20;0.20;;;12.40;99.90;;;;;;5010519;28;20575;-80
2021/05/16 06:19:04;;;;;;;0.63;0.37;;;12.30;99.90;;;;;;5010768;28;20191;-79
2021/05/16 06:21:29;;;;;;;0.27;0.27;;;11.90;99.90;;;;;;5010615;28;20189;-80
2021/05/16 06:24:09;;;;;;;0.10;0.10;;;11.70;99.90;;;;;;5025974;28;20184;-80
2021/05/16 06:26:37;;;;;;;2.03;0.30;;;11.90;99.90;;;;;;5083608;22;20308;-80
2021/05/16 06:29:07;;;;;;;0.40;0.40;;;11.90;99.90;;;;;;5030854;28;20180;-80
2021/05/16 06:31:34;;;;;;;0.10;0.10;;;11.90;99.90;;;;;;5030387;28;20194;-80
2021/05/16 06:34:00;;;;;;;0.10;0.10;;;11.90;99.90;;;;;;5024614;28;20191;-80
2021/05/16 06:36:27;;;;;;;0.10;0.10;;;12.10;99.90;;;;;;5032464;28;20206;-80
2021/05/16 06:38:53;;;;;;;0.20;0.20;;;12.30;99.90;;;;;;5032990;28;20182;-80
2021/05/16 06:41:18;;;;;;;0.13;0.13;;;12.30;99.90;;;;;;5031776;28;20293;-79
2021/05/16 06:43:45;;;;;;;0.00;0.00;;;12.40;99.90;;;;;;5030985;28;20327;-80
2021/05/16 06:46:12;;;;;;;0.20;0.20;;;12.50;99.90;;;;;;5031197;28;20252;-80
2021/05/16 06:48:37;;;;;;;0.10;0.10;;;12.50;99.90;;;;;;5029337;28;20215;-81
2021/05/16 06:51:03;;;;;;;0.10;0.10;;;12.60;99.90;;;;;;5030613;28;20583;-82
2021/05/16 06:53:30;;;;;;;0.10;0.10;;;12.80;99.90;;;;;;5028460;28;21106;-82
2021/05/16 06:55:56;;;;;;;0.10;0.10;;;13.00;99.90;;;;;;5029719;28;20207;-80
2021/05/16 06:58:21;;;;;;;0.10;0.10;;;13.20;99.90;;;;;;5026593;28;20186;-81
2021/05/16 07:00:47;;;;;;;0.20;0.20;;;13.30;99.90;;;;;;5027115;28;20259;-80
2021/05/16 07:03:12;;;;;;;0.17;0.17;;;13.50;99.90;;;;;;5027515;28;20568;-83
2021/05/16 07:05:38;;;;;;;0.30;0.30;;;13.80;99.90;;;;;;5029649;28;20259;-81
2021/05/16 07:08:04;;;;;;;0.20;0.20;;;14.00;99.90;;;;;;5023127;28;20274;-82
2021/05/16 07:10:29;;;;;;;0.20;0.20;;;14.20;99.90;;;;;;5030648;28;20256;-82
2021/05/16 07:12:55;;;;;;;0.13;0.13;;;14.20;99.90;;;;;;5026254;28;20569;-83
2021/05/16 07:15:21;;;;;;;0.10;0.10;;;14.30;99.90;;;;;;5023619;28;20215;-83
2021/05/16 07:17:48;;;;;;;0.17;0.17;;;14.50;99.90;;;;;;5025496;28;20281;-83
2021/05/16 07:20:14;;;;;;;0.27;0.23;;;14.50;99.90;;;;;;5027840;28;20187;-83
2021/05/16 07:22:40;;;;;;;0.10;0.10;;;14.50;99.90;;;;;;5024326;28;20695;-83
2021/05/16 07:25:06;;;;;;;0.10;0.10;;;14.50;99.90;;;;;;5031896;28;20721;-83
2021/05/16 07:27:31;;;;;;;0.13;0.13;;;14.50;99.90;;;;;;5025467;28;20218;-81
2021/05/16 07:29:57;;;;;;;0.10;0.10;;;14.60;99.90;;;;;;5026992;28;20283;-83
2021/05/16 07:32:22;;;;;;;0.10;0.10;;;14.80;99.90;;;;;;5022292;28;20198;-83
2021/05/16 07:34:48;;;;;;;0.20;0.20;;;15.00;99.90;;;;;;5026584;28;20183;-83
2021/05/16 07:37:14;;;;;;;0.10;0.10;;;15.10;99.90;;;;;;5024719;28;20200;-82
2021/05/16 07:39:39;;;;;;;0.40;0.40;;;15.30;99.90;;;;;;5027911;28;20276;-81
2021/05/16 07:42:06;;;;;;;0.50;0.37;;;15.30;99.90;;;;;;5026080;28;20725;-81
2021/05/16 07:44:31;;;;;;;0.10;0.10;;;15.30;99.90;;;;;;5033450;28;20186;-81
2021/05/16 07:46:57;;;;;;;0.20;0.20;;;15.20;99.90;;;;;;5033498;28;20696;-80
2021/05/16 07:49:23;;;;;;;0.10;0.10;;;15.30;99.90;;;;;;5032849;28;20188;-80
2021/05/16 07:51:48;;;;;;;0.30;0.30;;;15.20;99.90;;;;;;5031492;28;20274;-80
2021/05/16 07:54:14;;;;;;;0.30;0.30;;;15.50;99.90;;;;;;5031221;28;20252;-80
2021/05/16 07:56:39;;;;;;;0.60;0.60;;;15.60;99.90;;;;;;5028334;28;20340;-80
2021/05/16 07:59:05;;;;;;;0.20;0.20;;;15.70;99.90;;;;;;5029233;28;20218;-81
2021/05/16 08:01:31;;;;;;;0.10;0.10;;;15.70;99.90;;;;;;5033874;28;20191;-80
2021/05/16 08:03:56;;;;;;;0.23;0.23;;;15.40;99.90;;;;;;5035838;28;20196;-80
2021/05/16 08:06:22;;;;;;;0.10;0.10;;;15.40;99.90;;;;;;5035869;28;20211;-79
2021/05/16 08:08:48;;;;;;;0.30;0.30;;;15.30;99.90;;;;;;5034669;28;20238;-80
2021/05/16 08:11:14;;;;;;;0.20;0.20;;;15.20;99.90;;;;;;5034565;28;20783;-80
2021/05/16 08:13:39;;;;;;;0.17;0.17;;;15.20;99.90;;;;;;5036443;28;20192;-80
2021/05/16 08:16:05;;;;;;;0.20;0.20;;;15.10;99.90;;;;;;5027091;28;20212;-80
2021/05/16 08:18:31;;;;;;;0.17;0.17;;;14.90;99.90;;;;;;5037740;28;20264;-79
2021/05/16 08:20:56;;;;;;;0.10;0.10;;;14.90;99.90;;;;;;5034596;28;20183;-80
2021/05/16 08:23:22;;;;;;;0.23;0.23;;;14.90;99.90;;;;;;5039882;28;20271;-80
2021/05/16 08:25:48;;;;;;;0.53;0.10;;;14.70;99.90;;;;;;5040277;28;20234;-81
2021/05/16 08:28:14;;;;;;;0.10;0.10;;;14.50;99.90;;;;;;5040529;28;20616;-81
2021/05/16 08:30:40;;;;;;;0.20;0.20;;;14.40;99.90;;;;;;5039415;28;20268;-80
2021/05/16 08:33:06;;;;;;;0.20;0.20;;;14.20;99.90;;;;;;5040355;28;20207;-80
2021/05/16 08:35:32;;;;;;;0.20;0.20;;;14.10;99.90;;;;;;5038824;28;20306;-81
2021/05/16 08:37:57;;;;;;;0.13;0.13;;;14.00;99.90;;;;;;5038698;28;20198;-81
2021/05/16 08:40:23;;;;;;;0.10;0.10;;;14.30;99.90;;;;;;5039759;28;20713;-79
2021/05/16 08:42:49;;;;;;;0.10;0.10;;;14.50;99.90;;;;;;5039890;28;20192;-80
2021/05/16 08:45:15;;;;;;;0.10;0.10;;;14.70;99.90;;;;;;5033904;28;20210;-78
2021/05/16 08:47:43;;;;;;;0.10;0.10;;;14.90;99.90;;;;;;5036283;28;20202;-81
2021/05/16 08:50:11;;;;;;;0.47;0.20;;;15.10;99.90;;;;;;5039282;28;20197;-80
2021/05/16 08:52:37;;;;;;;0.10;0.10;;;15.20;99.90;;;;;;5037512;28;20669;-82
2021/05/16 08:55:04;;;;;;;0.10;0.10;;;15.10;99.90;;;;;;5033533;28;20212;-80
2021/05/16 08:57:30;;;;;;;0.93;0.93;;;15.10;99.90;;;;;;5035161;28;20209;-81
2021/05/16 09:00:06;;;;;;;0.20;0.20;;;15.20;99.90;;;;;;5033065;28;20188;-80
2021/05/16 09:02:31;;;;;;;1.20;0.40;;;15.40;99.90;;;;;;5034110;28;20188;-80
2021/05/16 09:04:57;;;;;;;0.20;0.20;;;15.80;99.90;;;;;;5032377;28;20197;-81
2021/05/16 09:07:30;;;;;;;0.10;0.10;;;16.30;99.90;;;;;;5033621;28;20206;-79
2021/05/16 09:09:55;;;;;;;0.43;0.43;;;16.70;99.90;;;;;;5034611;28;20195;-80
2021/05/16 09:12:22;;;;;;;0.20;0.20;;;16.90;99.90;;;;;;5033868;28;20561;-80
2021/05/16 09:14:51;;;;;;;0.10;0.10;;;17.20;99.90;;;;;;5034211;28;20258;-82
2021/05/16 09:17:19;;;;;;;0.10;0.10;;;17.20;99.90;;;;;;5030493;28;20450;-79
2021/05/16 09:19:47;;;;;;;0.10;0.10;;;17.10;99.90;;;;;;5032602;28;20575;-80
2021/05/16 09:22:48;;;;;;;0.10;0.10;;;16.80;99.90;;;;;;5034511;28;20259;-79
2021/05/16 09:25:31;;;;;;;0.20;0.20;;;16.10;99.90;;;;;;5035237;28;20228;-79
2021/05/16 09:28:06;;;;;;;0.10;0.10;;;15.50;99.90;;;;;;5024805;28;20209;-78
2021/05/16 09:30:36;;;;;;;0.10;0.10;;;15.10;99.90;;;;;;5033921;28;20671;-79
2021/05/16 09:33:03;;;;;;;0.10;0.10;;;15.30;99.90;;;;;;5035145;28;20727;-79
2021/05/16 09:35:47;;;;;;;0.10;0.10;;;15.50;99.90;;;;;;5032197;28;20655;-78
2021/05/16 09:38:13;;;;;;;0.10;0.10;;;15.30;99.90;;;;;;5034877;28;20194;-78
2021/05/16 09:40:44;;;;;;;0.10;0.10;;;15.10;99.90;;;;;;5033128;28;20243;-80
2021/05/16 09:43:11;;;;;;;0.27;0.27;;;15.00;99.90;;;;;;5033576;28;20212;-81
2021/05/16 09:45:41;;;;;;;0.10;0.10;;;14.80;99.90;;;;;;5038460;28;20213;-79
2021/05/16 09:48:32;;;;;;;0.00;0.00;;;14.80;99.90;;;;;;5037229;28;20188;-79
2021/05/16 09:51:08;;;;;;;0.10;0.10;;;14.90;99.90;;;;;;5033952;28;20203;-80
2021/05/16 09:53:44;;;;;;;0.10;0.10;;;15.00;99.90;;;;;;5031383;28;20561;-79
2021/05/16 09:56:14;;;;;;;0.20;0.20;;;15.00;99.90;;;;;;5036171;28;20242;-80
2021/05/16 09:58:40;;;;;;;0.10;0.10;;;15.20;99.90;;;;;;5037418;28;20190;-80
2021/05/16 10:01:06;;;;;;;0.10;0.10;;;15.40;99.90;;;;;;5033570;28;20553;-80
2021/05/16 10:03:32;;;;;;;0.17;0.17;;;15.80;99.90;;;;;;5036368;28;20204;-81
2021/05/16 10:05:58;;;;;;;0.20;0.10;;;16.30;99.90;;;;;;5034820;28;20398;-81
2021/05/16 10:08:24;;;;;;;0.20;0.20;;;16.80;99.90;;;;;;5031240;28;20190;-80
2021/05/16 10:10:49;;;;;;;0.40;0.30;;;17.40;99.90;;;;;;5028344;28;20179;-80
2021/05/16 10:13:16;;;;;;;0.70;0.40;;;17.50;99.90;;;;;;5032794;28;20198;-81
2021/05/16 10:15:42;;;;;;;0.10;0.10;;;17.70;99.90;;;;;;5032711;28;20194;-79
2021/05/16 10:18:10;;;;;;;0.10;0.10;;;17.90;99.90;;;;;;5033759;28;20272;-78
2021/05/16 10:20:38;;;;;;;0.20;0.20;;;17.60;99.90;;;;;;5032030;28;20186;-81
2021/05/16 10:23:06;;;;;;;0.10;0.10;;;17.50;99.90;;;;;;5032919;28;20647;-81
2021/05/16 10:25:43;;;;;;;0.10;0.10;;;17.30;99.90;;;;;;5032579;28;20206;-81
2021/05/16 10:28:15;;;;;;;0.20;0.20;;;17.80;99.90;;;;;;5028802;28;20208;-81
2021/05/16 10:30:59;;;;;;;0.10;0.10;;;18.10;99.90;;;;;;5031523;28;20264;-82
2021/05/16 10:33:32;;;;;;;0.13;0.13;;;18.20;99.90;;;;;;5021713;28;20187;-82
2021/05/16 10:35:57;;;;;;;0.77;0.30;;;18.30;99.90;;;;;;5038942;28;20689;-81
2021/05/16 10:38:37;;;;;;;0.63;0.63;;;18.70;99.90;;;;;;5040792;28;20237;-80
2021/05/16 10:41:16;;;;;;;0.20;0.20;;;18.60;99.90;;;;;;5035248;28;20236;-80
2021/05/16 10:43:41;;;;;;;0.20;0.20;;;18.40;99.90;;;;;;5035562;28;20229;-80
2021/05/16 10:46:46;;;;;;;0.23;0.17;;;18.40;99.90;;;;;;5032831;28;20442;-80
2021/05/16 10:49:26;;;;;;;0.87;0.30;;;18.40;99.90;;;;;;4992573;28;20242;-80
2021/05/16 10:51:53;;;;;;;0.23;0.23;;;18.20;99.90;;;;;;4993858;28;20188;-81
2021/05/16 10:54:28;;;;;;;3.20;1.60;;;18.10;99.90;;;;;;5016667;28;20251;-80
2021/05/16 10:57:14;;;;;;;0.10;0.10;;;18.00;99.90;;;;;;5032579;28;20217;-81
2021/05/16 10:59:40;;;;;;;1.13;0.40;;;17.80;99.90;;;;;;5031282;28;20193;-80
2021/05/16 11:02:06;;;;;;;0.53;0.40;;;17.50;99.90;;;;;;5034742;28;20193;-81
2021/05/16 11:04:55;;;;;;;0.10;0.10;;;17.50;99.90;;;;;;5035682;28;20196;-80
2021/05/16 11:07:36;;;;;;;0.10;0.10;;;17.60;99.90;;;;;;5033234;28;20209;-81
2021/05/16 11:10:28;;;;;;;0.53;0.40;;;17.90;99.90;;;;;;5028767;28;20183;-81
2021/05/16 11:13:11;;;;;;;0.10;0.10;;;18.10;99.90;;;;;;5033754;28;20678;-81
2021/05/16 11:15:37;;;;;;;0.20;0.20;;;18.40;99.90;;;;;;5030669;28;20178;-81
2021/05/16 11:18:09;;;;;;;0.20;0.20;;;18.80;99.90;;;;;;5035195;28;20189;-80
2021/05/16 11:20:35;;;;;;;0.20;0.20;;;19.20;99.90;;;;;;5028103;28;20196;-81
2021/05/16 11:23:00;;;;;;;0.30;0.20;;;19.50;99.90;;;;;;5032374;28;20193;-82
2021/05/16 11:25:26;;;;;;;0.30;0.30;;;19.80;99.90;;;;;;5031078;28;20210;-82
2021/05/16 11:27:52;;;;;;;0.10;0.10;;;19.90;99.90;;;;;;5023386;28;20209;-80
2021/05/16 11:30:21;;;;;;;0.53;0.53;;;19.50;99.90;;;;;;5027481;28;20198;-83
2021/05/16 11:32:47;;;;;;;0.30;0.30;;;19.50;99.90;;;;;;5030832;28;20177;-81
2021/05/16 11:35:16;;;;;;;0.20;0.20;;;19.20;99.90;;;;;;5031814;28;20186;-81
2021/05/16 11:37:45;;;;;;;2.20;0.20;;;18.80;99.90;;;;;;5031649;28;20260;-81
2021/05/16 11:40:15;;;;;;;0.10;0.10;;;18.70;99.90;;;;;;5030318;28;20182;-81
2021/05/16 11:42:42;;;;;;;0.10;0.10;;;18.90;99.90;;;;;;5030189;28;20178;-81
2021/05/16 11:45:09;;;;;;;0.10;0.10;;;19.10;99.90;;;;;;5030956;28;20193;-80
2021/05/16 11:47:39;;;;;;;0.50;0.50;;;19.70;99.90;;;;;;5030278;28;20678;-80
2021/05/16 11:50:07;;;;;;;0.10;0.10;;;19.70;99.90;;;;;;5049578;28;20186;-82
2021/05/16 11:52:33;;;;;;;0.10;0.10;;;19.90;99.90;;;;;;5025371;28;20179;-81
2021/05/16 11:55:10;;;;;;;0.10;0.10;;;19.90;99.90;;;;;;5030220;28;20276;-81
2021/05/16 11:57:42;;;;;;;0.10;0.10;;;19.80;99.90;;;;;;5043901;28;20198;-80
2021/05/16 12:00:09;;;;;;;0.93;0.93;;;19.70;99.90;;;;;;5029239;28;20258;-81
2021/05/16 12:02:38;;;;;;;0.10;0.10;;;19.60;99.90;;;;;;5028289;28;20552;-81
2021/05/16 12:05:04;;;;;;;0.20;0.20;;;19.50;99.90;;;;;;5030528;28;20289;-80
2021/05/16 12:07:30;;;;;;;0.10;0.10;;;19.10;99.90;;;;;;5031404;28;20221;-78
2021/05/16 12:09:56;;;;;;;0.23;0.23;;;18.80;99.90;;;;;;5030408;28;20233;-81
2021/05/16 12:12:26;;;;;;;0.20;0.20;;;18.50;99.90;;;;;;5028077;28;20700;-81
2021/05/16 12:14:55;;;;;;;0.20;0.20;;;18.50;99.90;;;;;;5030872;28;20174;-81
2021/05/16 12:17:28;;;;;;;0.10;0.10;;;18.50;99.90;;;;;;5031160;28;20659;-80
2021/05/16 12:19:53;;;;;;;0.10;0.10;;;18.90;99.90;;;;;;5028794;28;20268;-81
2021/05/16 12:22:19;;;;;;;0.30;0.30;;;19.30;99.90;;;;;;5027625;28;20210;-81
2021/05/16 12:24:46;;;;;;;1.17;0.20;;;19.10;99.90;;;;;;5029097;28;20220;-80
2021/05/16 12:27:17;;;;;;;0.10;0.10;;;18.80;99.90;;;;;;5028369;28;20225;-81
2021/05/16 12:29:45;;;;;;;0.63;0.40;;;18.30;99.90;;;;;;5030800;28;20261;-80
2021/05/16 12:32:11;;;;;;;0.20;0.20;;;18.20;99.90;;;;;;5029848;28;20683;-79
2021/05/16 12:34:38;;;;;;;0.10;0.10;;;18.20;99.90;;;;;;5029472;28;20186;-79
2021/05/16 12:37:35;;;;;;;0.10;0.10;;;18.20;99.90;;;;;;5028329;28;20284;-81
2021/05/16 12:40:02;;;;;;;0.10;0.10;;;18.40;99.90;;;;;;5010402;28;20230;-81
2021/05/16 12:42:37;;;;;;;0.10;0.10;;;18.50;99.90;;;;;;5022709;28;20190;-80
2021/05/16 12:45:17;;;;;;;0.30;0.30;;;19.10;99.90;;;;;;5028651;28;20816;-84
2021/05/16 12:47:53;;;;;;;0.10;0.10;;;19.80;99.90;;;;;;5024863;28;20206;-82
2021/05/16 12:50:26;;;;;;;0.13;0.13;;;20.00;99.90;;;;;;5029445;28;20782;-82